Pagrindinis puslapis
METAR-TAF:

METAR-TAF

Oro uostai :

Irkutskas, Rusija

platuma: 52-16N, ilguma: 104-19E, Aukštis: 513 m

Dabartinis oras

Ataskaita buvo paskelbta 28 minutes, ne 02:30 UTC
Vėjas 2 kt nuo kintamojo kryptimis
Temperatūra 6°C
Drėgmė 39%
Slėgis 1025 hPa
Matomumas 10 km arba daugiau
nėra debesų žemiau 1500 m ir nėra kamuolinių lietaus debesų

METAR: UIII 080230Z VRB01MPS CAVOK 06/M07 Q1025 R12/60D NOSIG RMK QFE726/0968

Laikas: 10:58 (02:58 UTC)

Prognozė

Ataskaita buvo paskelbta 58 minutes, ne 02:00 UTC
Prognozė galioja nuo 08 metu 03 UTC su 09 metu 03 UTC
Vėjas 6 kt iš Pietų/Pietryčių
Matomumas 10 km arba daugiau
nėra debesų žemiau 1500 m ir nėra kamuolinių lietaus debesų

TAF: UIII 080200Z 0803/0903 16003MPS CAVOK

Orai ataskaitas ir orų prognozės (METAR, TAF).

turimą stotys yra geltonos ir raudonos taškus žemėlapyje.

Perkelti pele per norėdami pamatyti stoties vardą.

Tada spustelėkite, norėdami matyti oro stebėjimo ir prognozės.

Norėdami pakeisti žemėlapį: spustelėkite ant žalios mygtukų su juodo kryžiaus žemyn,; žalią mygtuką su brūkšneliu, jei norite nutolinti; arba žalių rodyklių gretimoms žemėlapius.


METAR-TAF: